createdAt,value
2023-02-11T00:01:49.742Z,101283.59
2023-02-11T00:04:16.374Z,101281.63
2023-02-11T00:06:43.123Z,101284.56
2023-02-11T00:09:10.463Z,101278.31
2023-02-11T00:11:37.034Z,101277.75
2023-02-11T00:14:08.039Z,101269.13
2023-02-11T00:16:35.143Z,101272.50
2023-02-11T00:19:03.538Z,101268.47
2023-02-11T00:21:30.349Z,101272.50
2023-02-11T00:23:59.728Z,101267.56
2023-02-11T00:26:32.316Z,101268.38
2023-02-11T00:28:59.228Z,101264.16
2023-02-11T00:31:26.636Z,101273.31
2023-02-11T00:33:54.171Z,101267.16
2023-02-11T00:36:26.667Z,101260.50
2023-02-11T00:38:54.368Z,101258.56
2023-02-11T00:41:21.499Z,101266.28
2023-02-11T00:43:48.716Z,101262.25
2023-02-11T00:46:15.712Z,101261.34
2023-02-11T00:48:43.042Z,101261.00
2023-02-11T00:51:10.100Z,101249.38
2023-02-11T00:53:36.980Z,101251.34
2023-02-11T00:56:04.150Z,101249.69
2023-02-11T00:58:31.150Z,101249.19
2023-02-11T01:00:57.864Z,101252.81
2023-02-11T01:03:24.549Z,101244.50
2023-02-11T01:05:51.552Z,101230.53
2023-02-11T01:08:18.343Z,101236.84
2023-02-11T01:10:45.021Z,101235.59
2023-02-11T01:13:11.760Z,101236.84
2023-02-11T01:15:38.295Z,101231.28
2023-02-11T01:18:05.652Z,101222.69
2023-02-11T01:20:32.320Z,101229.34
2023-02-11T01:22:58.895Z,101224.41
2023-02-11T01:25:25.446Z,101222.44
2023-02-11T01:27:52.071Z,101229.44
2023-02-11T01:30:18.654Z,101226.34
2023-02-11T01:32:45.181Z,101223.75
2023-02-11T01:35:11.939Z,101225.31
2023-02-11T01:37:38.601Z,101226.81
2023-02-11T01:40:08.104Z,101220.91
2023-02-11T01:42:34.768Z,101220.41
2023-02-11T01:45:21.932Z,101218.09
2023-02-11T01:47:48.532Z,101214.94
2023-02-11T01:50:15.201Z,101218.94
2023-02-11T01:52:42.631Z,101218.59
2023-02-11T01:55:31.784Z,101219.22
2023-02-11T01:58:02.902Z,101220.44
2023-02-11T02:00:36.251Z,101214.03
2023-02-11T02:03:31.418Z,101214.56
2023-02-11T02:06:06.032Z,101205.91
2023-02-11T02:08:46.949Z,101207.16
2023-02-11T02:11:13.555Z,101199.22
2023-02-11T02:13:40.122Z,101201.34
2023-02-11T02:16:12.652Z,101202.38
2023-02-11T02:18:53.081Z,101195.22
2023-02-11T02:21:30.178Z,101184.91
2023-02-11T02:24:15.470Z,101191.25
2023-02-11T02:27:13.125Z,101193.25
2023-02-11T02:29:45.504Z,101185.59
2023-02-11T02:32:40.305Z,101177.84
2023-02-11T02:35:14.792Z,101193.00
2023-02-11T02:37:50.708Z,101176.56
2023-02-11T02:40:23.760Z,101176.56
2023-02-11T02:42:51.423Z,101177.97
2023-02-11T02:45:19.300Z,101172.56
2023-02-11T02:47:45.854Z,101174.84
2023-02-11T02:50:16.751Z,101168.97
2023-02-11T02:53:02.058Z,101165.84
2023-02-11T02:55:37.507Z,101162.19
2023-02-11T02:58:32.946Z,101158.53
2023-02-11T03:01:04.903Z,101153.53
2023-02-11T03:03:37.651Z,101151.19
2023-02-11T03:06:22.672Z,101139.78
2023-02-11T03:08:57.095Z,101145.03
2023-02-11T03:11:25.872Z,101139.09
2023-02-11T03:13:54.605Z,101131.72
2023-02-11T03:16:27.393Z,101152.84
2023-02-11T03:19:03.391Z,101130.75
2023-02-11T03:21:33.398Z,101131.25
2023-02-11T03:24:05.875Z,101133.19
2023-02-11T03:26:48.606Z,101131.75
2023-02-11T03:29:43.167Z,101138.81
2023-02-11T03:32:18.211Z,101130.44
2023-02-11T03:34:52.934Z,101136.31
2023-02-11T03:37:31.527Z,101132.16
2023-02-11T03:40:03.559Z,101137.47
2023-02-11T03:42:39.012Z,101135.16
2023-02-11T03:45:10.177Z,101128.94
2023-02-11T03:47:39.982Z,101121.13
2023-02-11T03:50:08.978Z,101128.75
2023-02-11T03:52:37.903Z,101115.72
2023-02-11T03:55:11.248Z,101114.69
2023-02-11T03:57:38.332Z,101105.94
2023-02-11T04:00:06.529Z,101108.28
2023-02-11T04:02:36.100Z,101111.59
2023-02-11T04:05:03.256Z,101104.09
2023-02-11T04:07:30.074Z,101105.63
2023-02-11T04:09:56.684Z,101097.38
2023-02-11T04:12:23.247Z,101098.50
2023-02-11T04:14:49.854Z,101094.66
2023-02-11T04:17:16.899Z,101093.09
2023-02-11T04:19:43.441Z,101083.03
2023-02-11T04:22:10.287Z,101082.72
2023-02-11T04:24:36.828Z,101084.78
2023-02-11T04:27:03.523Z,101073.66
2023-02-11T04:29:30.346Z,101079.97
2023-02-11T04:31:56.968Z,101066.53
2023-02-11T04:34:24.565Z,101070.25
2023-02-11T04:36:51.265Z,101059.91
2023-02-11T04:39:18.022Z,101065.84
2023-02-11T04:41:44.661Z,101061.84
2023-02-11T04:44:11.242Z,101077.00
2023-02-11T04:46:37.807Z,101070.72
2023-02-11T04:49:04.530Z,101064.78
2023-02-11T04:51:31.237Z,101069.94
2023-02-11T04:53:57.784Z,101071.69
2023-02-11T04:56:24.380Z,101074.56
2023-02-11T04:58:50.990Z,101078.16
2023-02-11T05:01:17.740Z,101079.19
2023-02-11T05:03:44.932Z,101075.56
2023-02-11T05:06:12.199Z,101080.75
2023-02-11T05:08:39.865Z,101085.47
2023-02-11T05:11:06.603Z,101078.06
2023-02-11T05:13:33.437Z,101075.75
2023-02-11T05:16:00.200Z,101078.31
2023-02-11T05:18:26.760Z,101071.16
2023-02-11T05:20:53.355Z,101072.56
2023-02-11T05:23:20.087Z,101076.53
2023-02-11T05:25:46.631Z,101078.41
2023-02-11T05:28:13.157Z,101075.75
2023-02-11T05:30:39.854Z,101068.34
2023-02-11T05:33:06.501Z,101059.28
2023-02-11T05:35:33.039Z,101067.75
2023-02-11T05:37:59.559Z,101069.63
2023-02-11T05:40:26.192Z,101075.44
2023-02-11T05:42:52.769Z,101070.56
2023-02-11T05:45:19.305Z,101070.59
2023-02-11T05:47:45.909Z,101079.09
2023-02-11T05:50:12.638Z,101074.66
2023-02-11T05:52:39.257Z,101070.41
2023-02-11T05:55:06.490Z,101069.94
2023-02-11T05:57:33.037Z,101068.72
2023-02-11T05:59:59.590Z,101064.53
2023-02-11T06:02:26.171Z,101066.28
2023-02-11T06:04:52.783Z,101056.69
2023-02-11T06:07:19.804Z,101064.06
2023-02-11T06:09:47.475Z,101065.06
2023-02-11T06:12:13.983Z,101061.41
2023-02-11T06:14:40.612Z,101064.38
2023-02-11T06:17:07.303Z,101065.78
2023-02-11T06:19:34.269Z,101066.34
2023-02-11T06:22:00.863Z,101068.78
2023-02-11T06:24:50.956Z,101057.16
2023-02-11T06:27:14.214Z,101054.53
2023-02-11T06:29:40.733Z,101055.84
2023-02-11T06:32:10.104Z,101048.97
2023-02-11T06:34:42.573Z,101045.34
2023-02-11T06:37:09.102Z,101044.66
2023-02-11T06:39:35.624Z,101044.47
2023-02-11T06:42:02.177Z,101046.72
2023-02-11T06:44:28.687Z,101038.19
2023-02-11T06:46:55.307Z,101031.94
2023-02-11T06:49:21.919Z,101030.47
2023-02-11T06:51:48.472Z,101013.56
2023-02-11T06:54:15.083Z,101015.34
2023-02-11T06:56:41.832Z,101014.50
2023-02-11T06:59:08.980Z,101012.84
2023-02-11T07:01:35.662Z,101010.19
2023-02-11T07:04:02.238Z,101011.59
2023-02-11T07:06:28.958Z,101007.09
2023-02-11T07:08:56.552Z,101001.78
2023-02-11T07:11:25.965Z,100997.59
2023-02-11T07:13:54.686Z,101003.09
2023-02-11T07:16:21.419Z,101005.97
2023-02-11T07:18:49.021Z,101008.50
2023-02-11T07:21:19.408Z,101011.56
2023-02-11T07:23:47.052Z,101012.69
2023-02-11T07:26:15.948Z,101004.28
2023-02-11T07:28:43.546Z,101008.47
2023-02-11T07:31:18.938Z,101023.09
2023-02-11T07:33:48.473Z,101021.81
2023-02-11T07:36:16.473Z,101019.75
2023-02-11T07:38:43.904Z,101008.75
2023-02-11T07:41:12.904Z,101001.50
2023-02-11T07:43:40.289Z,100992.78
2023-02-11T07:46:10.131Z,101006.34
2023-02-11T07:48:37.654Z,100991.16
2023-02-11T07:51:13.674Z,100994.19
2023-02-11T07:53:41.111Z,100985.78
2023-02-11T07:56:08.776Z,100977.09
2023-02-11T07:58:35.803Z,100973.84
2023-02-11T08:01:07.405Z,100974.09
2023-02-11T08:03:35.182Z,100982.25
2023-02-11T08:06:13.150Z,100979.22
2023-02-11T08:08:40.449Z,100975.44
2023-02-11T08:11:13.227Z,100980.28
2023-02-11T08:13:40.072Z,100979.63
2023-02-11T08:16:08.000Z,100989.59
2023-02-11T08:18:35.443Z,100992.28
2023-02-11T08:21:06.837Z,100995.06
2023-02-11T08:23:33.831Z,101004.13
2023-02-11T08:26:13.170Z,101009.41
2023-02-11T08:28:40.980Z,101013.44
2023-02-11T08:31:13.842Z,101014.00
2023-02-11T08:33:41.110Z,101009.38
2023-02-11T08:36:16.774Z,101013.44
2023-02-11T08:38:44.059Z,101007.97
2023-02-11T08:41:11.401Z,101015.25
2023-02-11T08:43:41.674Z,101002.41
2023-02-11T08:46:10.056Z,100998.78
2023-02-11T08:48:36.636Z,100995.78
2023-02-11T08:51:11.552Z,101006.16
2023-02-11T08:53:39.281Z,100993.59
2023-02-11T08:56:06.480Z,100994.72
2023-02-11T08:58:33.374Z,100979.75
2023-02-11T09:01:00.108Z,100990.91
2023-02-11T09:03:26.684Z,100990.31
2023-02-11T09:05:53.444Z,100979.31
2023-02-11T09:08:21.062Z,100972.25
2023-02-11T09:10:47.976Z,100971.50
2023-02-11T09:13:14.812Z,100963.09
2023-02-11T09:15:45.532Z,100972.47
2023-02-11T09:18:12.206Z,100964.34
2023-02-11T09:20:38.834Z,100969.09
2023-02-11T09:23:05.384Z,100972.38
2023-02-11T09:25:31.940Z,100970.53
2023-02-11T09:27:58.619Z,100980.88
2023-02-11T09:30:25.186Z,100970.53
2023-02-11T09:32:51.748Z,100971.81
2023-02-11T09:35:18.322Z,100964.03
2023-02-11T09:37:44.886Z,100966.09
2023-02-11T09:40:12.969Z,100967.00
2023-02-11T09:42:47.693Z,100972.50
2023-02-11T09:45:26.743Z,100978.38
2023-02-11T09:48:00.430Z,100976.31
2023-02-11T09:50:34.433Z,100973.59
2023-02-11T09:53:06.736Z,100970.44
2023-02-11T09:55:38.048Z,100976.22
2023-02-11T09:58:12.004Z,100972.13
2023-02-11T10:00:45.101Z,100970.13
2023-02-11T10:03:46.728Z,100974.91
2023-02-11T10:06:20.127Z,100968.34
2023-02-11T10:09:06.949Z,100950.41
2023-02-11T10:11:57.814Z,100947.03
2023-02-11T10:14:42.495Z,100952.94
2023-02-11T10:17:36.920Z,100955.22
2023-02-11T10:20:18.342Z,100942.13
2023-02-11T10:22:55.724Z,100936.22
2023-02-11T10:25:27.102Z,100925.34
2023-02-11T10:27:58.024Z,100935.44
2023-02-11T10:30:31.185Z,100926.50
2023-02-11T10:33:04.369Z,100922.72
2023-02-11T10:35:31.949Z,100923.63
2023-02-11T10:37:59.685Z,100919.69
2023-02-11T10:40:29.264Z,100919.63
2023-02-11T10:43:00.810Z,100899.94
2023-02-11T10:45:27.276Z,100906.25
2023-02-11T10:47:55.245Z,100888.34
2023-02-11T10:50:34.924Z,100886.47
2023-02-11T10:53:21.605Z,100890.22
2023-02-11T10:55:57.312Z,100883.31
2023-02-11T10:58:30.757Z,100891.63
2023-02-11T11:01:00.135Z,100891.50
2023-02-11T11:03:37.032Z,100887.53
2023-02-11T11:06:09.453Z,100875.44
2023-02-11T11:08:49.241Z,100869.72
2023-02-11T11:11:18.613Z,100871.59
2023-02-11T11:13:54.324Z,100867.03
2023-02-11T11:16:51.872Z,100870.22
2023-02-11T11:19:25.940Z,100868.25
2023-02-11T11:21:54.851Z,100865.84
2023-02-11T11:24:31.255Z,100864.56
2023-02-11T11:27:01.753Z,100858.13
2023-02-11T11:29:39.583Z,100853.59
2023-02-11T11:32:20.750Z,100841.69
2023-02-11T11:34:54.099Z,100837.44
2023-02-11T11:37:25.521Z,100838.16
2023-02-11T11:40:09.824Z,100836.06
2023-02-11T11:42:38.600Z,100815.91
2023-02-11T11:45:19.780Z,100820.69
2023-02-11T11:48:00.626Z,100811.78
2023-02-11T11:50:40.145Z,100811.44
2023-02-11T11:53:21.154Z,100800.28
2023-02-11T11:55:53.608Z,100798.38
2023-02-11T11:58:23.478Z,100796.63
2023-02-11T12:00:55.954Z,100787.69
2023-02-11T12:03:40.927Z,100781.81
2023-02-11T12:06:30.277Z,100770.88
2023-02-11T12:09:19.881Z,100773.94
2023-02-11T12:12:24.030Z,100774.13
2023-02-11T12:15:05.915Z,100760.41
2023-02-11T12:18:13.928Z,100754.06
2023-02-11T12:20:59.960Z,100747.50
2023-02-11T12:23:37.319Z,100746.56
2023-02-11T12:26:03.786Z,100744.94
2023-02-11T12:28:39.421Z,100750.94
2023-02-11T12:31:29.184Z,100738.13
2023-02-11T12:34:18.361Z,100742.34
2023-02-11T12:36:55.413Z,100739.75
2023-02-11T12:39:38.175Z,100739.16
2023-02-11T12:42:38.574Z,100728.59
2023-02-11T12:45:11.044Z,100733.47
2023-02-11T12:48:13.105Z,100710.66
2023-02-11T12:50:59.149Z,100716.16
2023-02-11T12:53:51.779Z,100710.78
2023-02-11T12:56:31.296Z,100719.78
2023-02-11T12:59:00.353Z,100723.25
2023-02-11T13:01:33.780Z,100723.25
2023-02-11T13:04:16.033Z,100726.97
2023-02-11T13:06:48.558Z,100719.69
2023-02-11T13:09:22.449Z,100708.78
2023-02-11T13:11:53.794Z,100717.34
2023-02-11T13:14:35.534Z,100696.63
2023-02-11T13:17:16.181Z,100701.44
2023-02-11T13:19:50.680Z,100697.47
2023-02-11T13:22:24.249Z,100703.34
2023-02-11T13:24:56.591Z,100693.25
2023-02-11T13:27:51.196Z,100704.94
2023-02-11T13:30:29.381Z,100705.44
2023-02-11T13:32:56.019Z,100698.97
2023-02-11T13:35:45.932Z,100694.22
2023-02-11T13:38:27.607Z,100708.56
2023-02-11T13:41:03.046Z,100702.28
2023-02-11T13:43:34.482Z,100705.53
2023-02-11T13:46:10.596Z,100705.88
2023-02-11T13:48:49.962Z,100709.56
2023-02-11T13:51:19.371Z,100711.81
2023-02-11T13:53:58.183Z,100729.38
2023-02-11T13:56:30.623Z,100734.69
2023-02-11T13:59:01.874Z,100728.53
2023-02-11T14:02:07.716Z,100716.75
2023-02-11T14:04:53.178Z,100720.41
2023-02-11T14:07:50.414Z,100720.41
2023-02-11T14:10:41.730Z,100711.19
2023-02-11T14:13:27.583Z,100712.56
2023-02-11T14:16:13.552Z,100712.19
2023-02-11T14:18:49.006Z,100708.75
2023-02-11T14:21:34.165Z,100702.66
2023-02-11T14:24:05.137Z,100706.56
2023-02-11T14:26:53.628Z,100704.31
2023-02-11T14:29:32.484Z,100703.97
2023-02-11T14:31:59.084Z,100700.41
2023-02-11T14:34:46.901Z,100707.88
2023-02-11T14:37:38.266Z,100703.59
2023-02-11T14:40:17.826Z,100685.84
2023-02-11T14:42:45.319Z,100688.16
2023-02-11T14:45:19.835Z,100696.81
2023-02-11T14:47:59.386Z,100698.94
2023-02-11T14:50:44.974Z,100690.78
2023-02-11T14:53:24.274Z,100692.31
2023-02-11T14:55:53.547Z,100686.44
2023-02-11T14:58:24.070Z,100697.06
2023-02-11T15:01:01.059Z,100683.25
2023-02-11T15:03:37.686Z,100683.09
2023-02-11T15:06:12.482Z,100685.50
2023-02-11T15:08:45.752Z,100680.38
2023-02-11T15:11:15.683Z,100676.09
2023-02-11T15:13:49.724Z,100676.53
2023-02-11T15:16:20.810Z,100673.56
2023-02-11T15:18:51.836Z,100678.63
2023-02-11T15:21:24.691Z,100667.19
2023-02-11T15:23:57.213Z,100668.56
2023-02-11T15:26:23.866Z,100673.16
2023-02-11T15:28:52.134Z,100659.13
2023-02-11T15:31:21.608Z,100662.06
2023-02-11T15:33:48.322Z,100648.97
2023-02-11T15:36:16.769Z,100661.03
2023-02-11T15:38:43.608Z,100660.06
2023-02-11T15:41:34.721Z,100666.66
2023-02-11T15:44:01.294Z,100666.31
2023-02-11T15:46:36.688Z,100663.69
2023-02-11T15:49:03.803Z,100670.59
2023-02-11T15:51:34.617Z,100681.91
2023-02-11T15:54:15.302Z,100664.97
2023-02-11T15:56:44.354Z,100679.91
2023-02-11T15:59:23.969Z,100682.28
2023-02-11T16:01:50.827Z,100682.91
2023-02-11T16:04:20.807Z,100673.56
2023-02-11T16:06:48.193Z,100678.53
2023-02-11T16:09:14.634Z,100679.53
2023-02-11T16:12:18.966Z,100674.19
2023-02-11T16:14:45.533Z,100677.72
2023-02-11T16:17:29.470Z,100672.38
2023-02-11T16:19:56.339Z,100665.47
2023-02-11T16:22:26.399Z,100665.63
2023-02-11T16:24:57.321Z,100659.16
2023-02-11T16:27:31.915Z,100667.50
2023-02-11T16:29:58.906Z,100660.38
2023-02-11T16:32:29.770Z,100681.00
2023-02-11T16:34:59.099Z,100676.66
2023-02-11T16:37:27.131Z,100698.09
2023-02-11T16:39:54.634Z,100680.03
2023-02-11T16:42:21.236Z,100684.19
2023-02-11T16:44:47.778Z,100703.69
2023-02-11T16:47:24.599Z,100699.81
2023-02-11T16:49:51.474Z,100712.69
2023-02-11T16:52:19.863Z,100726.41
2023-02-11T16:54:46.860Z,100728.25
2023-02-11T16:57:18.778Z,100727.72
2023-02-11T16:59:46.983Z,100731.88
2023-02-11T17:02:29.265Z,100725.63
2023-02-11T17:04:59.556Z,100719.63
2023-02-11T17:07:26.576Z,100733.94
2023-02-11T17:09:53.215Z,100737.31
2023-02-11T17:12:21.030Z,100730.50
2023-02-11T17:14:47.736Z,100716.09
2023-02-11T17:17:14.443Z,100725.63
2023-02-11T17:19:41.068Z,100730.78
2023-02-11T17:22:08.228Z,100729.19
2023-02-11T17:24:34.783Z,100720.38
2023-02-11T17:27:01.336Z,100721.97
2023-02-11T17:29:28.058Z,100736.00
2023-02-11T17:31:54.782Z,100724.22
2023-02-11T17:34:23.006Z,100732.22
2023-02-11T17:36:49.646Z,100743.00
2023-02-11T17:39:16.573Z,100745.13
2023-02-11T17:41:43.127Z,100750.72
2023-02-11T17:44:12.453Z,100738.03
2023-02-11T17:46:39.187Z,100737.53
2023-02-11T17:49:06.418Z,100749.19
2023-02-11T17:51:35.899Z,100730.75
2023-02-11T17:54:05.619Z,100738.06
2023-02-11T17:56:33.560Z,100747.19
2023-02-11T17:59:02.335Z,100745.28
2023-02-11T18:01:30.547Z,100753.59
2023-02-11T18:03:57.553Z,100752.28
2023-02-11T18:06:24.243Z,100749.63
2023-02-11T18:08:50.780Z,100760.97
2023-02-11T18:11:17.780Z,100754.50
2023-02-11T18:13:45.377Z,100745.25
2023-02-11T18:16:16.088Z,100752.94
2023-02-11T18:18:43.590Z,100750.03
2023-02-11T18:21:15.265Z,100744.56
2023-02-11T18:23:41.865Z,100734.28
2023-02-11T18:26:09.981Z,100750.44
2023-02-11T18:28:37.003Z,100744.66
2023-02-11T18:31:07.911Z,100744.97
2023-02-11T18:33:36.315Z,100738.34
2023-02-11T18:36:07.332Z,100749.41
2023-02-11T18:38:34.400Z,100736.63
2023-02-11T18:41:01.142Z,100742.72
2023-02-11T18:43:31.684Z,100747.66
2023-02-11T18:45:58.392Z,100747.16
2023-02-11T18:48:28.592Z,100761.34
2023-02-11T18:50:55.647Z,100752.63
2023-02-11T18:53:23.130Z,100755.38
2023-02-11T18:55:50.007Z,100763.59
2023-02-11T18:58:17.132Z,100757.84
2023-02-11T19:00:46.347Z,100768.47
2023-02-11T19:03:12.997Z,100768.47
2023-02-11T19:05:44.120Z,100762.19
2023-02-11T19:08:10.876Z,100756.19
2023-02-11T19:10:45.984Z,100767.47
2023-02-11T19:13:13.089Z,100770.38
2023-02-11T19:15:44.476Z,100770.09
2023-02-11T19:18:12.554Z,100782.06
2023-02-11T19:20:40.416Z,100775.66
2023-02-11T19:23:07.508Z,100772.63
2023-02-11T19:25:34.611Z,100792.91
2023-02-11T19:28:01.487Z,100786.31
2023-02-11T19:30:28.185Z,100760.06
2023-02-11T19:32:57.205Z,100785.50
2023-02-11T19:35:24.816Z,100786.94
2023-02-11T19:37:51.354Z,100787.72
2023-02-11T19:40:19.219Z,100795.66
2023-02-11T19:42:45.856Z,100790.78
2023-02-11T19:45:12.665Z,100771.09
2023-02-11T19:47:39.430Z,100785.88
2023-02-11T19:50:06.621Z,100772.84
2023-02-11T19:52:33.221Z,100766.81
2023-02-11T19:55:00.472Z,100776.78
2023-02-11T19:57:27.178Z,100762.78
2023-02-11T19:59:55.048Z,100773.44
2023-02-11T20:02:21.674Z,100782.25
2023-02-11T20:04:48.569Z,100787.72
2023-02-11T20:07:15.211Z,100778.50
2023-02-11T20:09:42.639Z,100763.19
2023-02-11T20:12:10.414Z,100768.66
2023-02-11T20:14:37.010Z,100777.34
2023-02-11T20:17:03.816Z,100760.94
2023-02-11T20:19:30.766Z,100766.41
2023-02-11T20:21:57.356Z,100768.25
2023-02-11T20:24:25.489Z,100777.00
2023-02-11T20:26:55.510Z,100783.78
2023-02-11T20:29:22.745Z,100789.75
2023-02-11T20:31:50.135Z,100778.00
2023-02-11T20:34:18.031Z,100786.53
2023-02-11T20:36:51.610Z,100766.81
2023-02-11T20:39:21.901Z,100788.13
2023-02-11T20:41:49.323Z,100784.38
2023-02-11T20:44:16.184Z,100774.25
2023-02-11T20:46:47.903Z,100774.53
2023-02-11T20:49:16.500Z,100787.41
2023-02-11T20:51:43.395Z,100806.28
2023-02-11T20:54:14.931Z,100793.41
2023-02-11T20:56:41.650Z,100796.66
2023-02-11T20:59:08.562Z,100793.09
2023-02-11T21:01:43.292Z,100787.13
2023-02-11T21:04:18.706Z,100795.84
2023-02-11T21:06:49.158Z,100778.41
2023-02-11T21:09:19.813Z,100777.06
2023-02-11T21:11:47.300Z,100782.84
2023-02-11T21:14:13.879Z,100774.63
2023-02-11T21:16:41.033Z,100775.13
2023-02-11T21:19:07.707Z,100776.25
2023-02-11T21:21:38.181Z,100767.00
2023-02-11T21:24:08.457Z,100760.22
2023-02-11T21:26:35.606Z,100762.94
2023-02-11T21:29:04.067Z,100769.75
2023-02-11T21:31:33.341Z,100772.50
2023-02-11T21:34:00.044Z,100766.50
2023-02-11T21:36:28.315Z,100768.16
2023-02-11T21:38:55.008Z,100770.38
2023-02-11T21:41:22.785Z,100774.81
2023-02-11T21:43:50.357Z,100778.66
2023-02-11T21:46:17.936Z,100760.63
2023-02-11T21:48:44.519Z,100771.66
2023-02-11T21:51:17.625Z,100780.16
2023-02-11T21:53:44.924Z,100766.28
2023-02-11T21:56:14.070Z,100775.81
2023-02-11T21:58:40.747Z,100775.38
2023-02-11T22:01:13.141Z,100783.59
2023-02-11T22:03:39.850Z,100780.53
2023-02-11T22:06:12.594Z,100777.53
2023-02-11T22:08:39.821Z,100782.47
2023-02-11T22:11:08.602Z,100779.22
2023-02-11T22:13:36.036Z,100776.47
2023-02-11T22:16:05.615Z,100783.59
2023-02-11T22:18:32.603Z,100780.03
2023-02-11T22:21:05.394Z,100793.13
2023-02-11T22:23:32.232Z,100786.00
2023-02-11T22:26:03.260Z,100787.41
2023-02-11T22:28:30.147Z,100786.81
2023-02-11T22:30:58.204Z,100787.94
2023-02-11T22:33:25.889Z,100789.88
2023-02-11T22:36:04.420Z,100789.88
2023-02-11T22:38:31.860Z,100792.00
2023-02-11T22:40:59.704Z,100793.53
2023-02-11T22:43:27.800Z,100804.91
2023-02-11T22:45:56.463Z,100784.66
2023-02-11T22:48:23.422Z,100795.09
2023-02-11T22:50:50.023Z,100806.91
2023-02-11T22:53:16.746Z,100800.72
2023-02-11T22:55:43.336Z,100801.25
2023-02-11T22:58:09.918Z,100805.50
2023-02-11T23:00:40.673Z,100814.25
2023-02-11T23:03:08.573Z,100823.84
2023-02-11T23:05:42.155Z,100811.78
2023-02-11T23:08:11.037Z,100815.94
2023-02-11T23:10:39.718Z,100825.78
2023-02-11T23:13:07.882Z,100814.84
2023-02-11T23:15:38.412Z,100819.50
2023-02-11T23:18:05.225Z,100818.66
2023-02-11T23:20:34.417Z,100830.75
2023-02-11T23:23:00.964Z,100826.97
2023-02-11T23:25:27.539Z,100839.09
2023-02-11T23:27:54.169Z,100827.34
2023-02-11T23:30:21.874Z,100834.81
2023-02-11T23:32:49.338Z,100840.59
2023-02-11T23:35:22.086Z,100831.06
2023-02-11T23:37:50.360Z,100826.69
2023-02-11T23:40:17.438Z,100832.75
2023-02-11T23:42:44.130Z,100826.78
2023-02-11T23:45:10.786Z,100816.72
2023-02-11T23:47:37.406Z,100810.66
2023-02-11T23:50:04.144Z,100806.59
2023-02-11T23:52:30.697Z,100812.91
2023-02-11T23:54:57.240Z,100815.09
2023-02-11T23:57:23.836Z,100812.09
2023-02-11T23:59:50.738Z,100821.38
